Time;durP1;ratioP1;P1;durP2;ratioP2;P2;SDS_P1;SDS_P2;PMS_P1;PMS_P2;Temp;Humidity;BMP_temperature;BMP_pressure;BME280_temperature;BME280_humidity;BME280_pressure;Samples;Min_cycle;Max_cycle;Signal;HPM_P1;HPM_P2
2020/12/07 00:00:10;;;;;;;41.65;24.63;;;;;;;3.18;96.27;99942.34;5094640;28;20031;-71
2020/12/07 00:02:35;;;;;;;37.60;23.02;;;;;;;3.25;96.26;99949.06;5098546;28;20069;-72
2020/12/07 00:05:02;;;;;;;39.72;23.15;;;;;;;3.25;96.23;99952.53;5094312;28;20058;-71
2020/12/07 00:07:27;;;;;;;33.72;22.05;;;;;;;3.25;96.08;99939.47;5097063;27;20030;-71
2020/12/07 00:09:52;;;;;;;35.00;21.75;;;;;;;3.21;96.18;99924.78;5094589;28;20024;-71
2020/12/07 00:12:18;;;;;;;32.63;20.50;;;;;;;3.29;95.90;99937.66;5096437;28;20084;-71
2020/12/07 00:14:43;;;;;;;31.95;19.80;;;;;;;3.30;95.93;99936.75;5100192;28;20093;-71
2020/12/07 00:17:08;;;;;;;30.80;19.58;;;;;;;3.31;95.74;99925.38;5100489;28;20104;-71
2020/12/07 00:19:34;;;;;;;30.17;18.95;;;;;;;3.39;95.27;99926.03;5101835;28;20034;-71
2020/12/07 00:21:59;;;;;;;27.77;18.73;;;;;;;3.39;95.46;99915.59;5100450;28;20045;-71
2020/12/07 00:24:24;;;;;;;26.70;18.00;;;;;;;3.42;95.09;99909.44;5079029;28;20055;-71
2020/12/07 00:26:50;;;;;;;36.30;21.13;;;;;;;3.33;95.41;99903.56;5097983;28;20026;-71
2020/12/07 00:29:15;;;;;;;29.10;18.15;;;;;;;3.31;95.58;99899.28;5099556;28;20541;-71
2020/12/07 00:31:40;;;;;;;30.85;18.67;;;;;;;3.34;95.40;99897.44;5091642;28;20020;-71
2020/12/07 00:34:05;;;;;;;34.05;19.08;;;;;;;3.32;95.25;99888.81;5096084;28;20040;-71
2020/12/07 00:36:31;;;;;;;32.60;18.60;;;;;;;3.28;95.24;99884.56;5097959;28;20024;-71
2020/12/07 00:38:56;;;;;;;29.35;19.23;;;;;;;3.23;95.06;99880.38;5101202;28;20370;-71
2020/12/07 00:41:23;;;;;;;29.25;18.83;;;;;;;3.24;95.04;99875.09;5098331;28;20037;-70
2020/12/07 00:43:49;;;;;;;33.15;19.40;;;;;;;3.18;95.58;99871.81;5097650;28;20100;-70
2020/12/07 00:46:15;;;;;;;33.17;21.55;;;;;;;3.18;95.65;99862.25;5095968;28;20090;-70
2020/12/07 00:48:40;;;;;;;34.75;20.15;;;;;;;3.13;95.81;99863.28;5097245;28;20027;-71
2020/12/07 00:51:06;;;;;;;38.00;23.08;;;;;;;3.09;96.03;99865.13;5100538;28;20034;-71
2020/12/07 00:53:31;;;;;;;35.65;21.58;;;;;;;3.05;96.34;99866.94;5096550;28;20028;-71
2020/12/07 00:55:56;;;;;;;36.15;22.80;;;;;;;3.01;96.60;99862.75;5106126;28;20469;-71
2020/12/07 00:58:21;;;;;;;38.50;22.60;;;;;;;3.02;96.68;99866.19;5093111;28;20082;-71
2020/12/07 01:00:47;;;;;;;37.63;21.90;;;;;;;3.02;96.78;99864.44;5095361;28;20035;-71
2020/12/07 01:03:12;;;;;;;35.55;22.63;;;;;;;3.03;96.92;99858.31;5093542;28;20574;-71
2020/12/07 01:05:37;;;;;;;36.10;23.27;;;;;;;3.05;96.59;99863.50;5097598;28;20471;-71
2020/12/07 01:08:02;;;;;;;35.13;22.05;;;;;;;3.05;96.63;99860.88;5095735;28;20023;-71
2020/12/07 01:10:28;;;;;;;39.42;22.05;;;;;;;3.07;96.55;99859.09;5101145;28;20469;-70
2020/12/07 01:12:53;;;;;;;36.33;20.98;;;;;;;3.10;96.47;99862.44;5097560;28;20038;-71
2020/12/07 01:15:18;;;;;;;35.30;21.20;;;;;;;3.11;96.31;99868.53;5091264;28;20040;-70
2020/12/07 01:17:44;;;;;;;31.35;19.73;;;;;;;3.11;96.29;99869.41;5100827;28;20088;-70
2020/12/07 01:20:09;;;;;;;29.95;19.00;;;;;;;3.14;96.15;99875.44;5092635;28;20024;-70
2020/12/07 01:22:35;;;;;;;30.95;18.27;;;;;;;3.21;96.40;99871.72;5091515;28;20023;-70
2020/12/07 01:25:01;;;;;;;32.03;18.80;;;;;;;3.22;96.82;99873.47;5093904;28;20030;-70
2020/12/07 01:27:26;;;;;;;31.63;19.23;;;;;;;3.26;96.43;99873.31;5092859;28;20107;-70
2020/12/07 01:29:51;;;;;;;28.45;18.00;;;;;;;3.30;96.22;99872.31;5095138;28;20482;-70
2020/12/07 01:32:17;;;;;;;29.75;17.95;;;;;;;3.28;96.40;99875.88;5100555;28;20024;-71
2020/12/07 01:34:42;;;;;;;28.38;18.50;;;;;;;3.32;96.16;99869.66;5095108;28;20024;-70
2020/12/07 01:37:07;;;;;;;32.08;17.48;;;;;;;3.38;95.82;99872.94;5099250;28;20028;-70
2020/12/07 01:39:33;;;;;;;25.98;16.48;;;;;;;3.37;96.34;99865.16;5097992;28;20028;-70
2020/12/07 01:41:58;;;;;;;26.08;17.17;;;;;;;3.40;96.32;99862.44;5101191;28;20028;-70
2020/12/07 01:44:23;;;;;;;31.63;17.08;;;;;;;3.41;96.54;99866.75;5098756;28;20064;-70
2020/12/07 01:46:49;;;;;;;30.77;16.67;;;;;;;3.40;96.55;99857.22;5098320;28;20036;-70
2020/12/07 01:49:14;;;;;;;29.83;18.20;;;;;;;3.41;96.63;99861.53;5098977;28;20081;-71
2020/12/07 01:51:39;;;;;;;30.35;18.40;;;;;;;3.44;96.86;99864.06;5094143;28;20499;-70
2020/12/07 01:54:05;;;;;;;28.63;16.73;;;;;;;3.43;97.00;99851.91;5104676;28;20019;-70
2020/12/07 01:56:30;;;;;;;29.40;17.88;;;;;;;3.41;97.01;99851.06;5095496;28;20481;-70
2020/12/07 01:58:57;;;;;;;30.23;17.48;;;;;;;3.41;97.69;99858.06;5097491;28;20111;-70
2020/12/07 02:01:22;;;;;;;27.23;16.67;;;;;;;3.45;97.47;99852.69;5093821;28;20035;-70
2020/12/07 02:03:48;;;;;;;26.77;16.80;;;;;;;3.45;97.27;99857.06;5099055;28;20371;-70
2020/12/07 02:06:13;;;;;;;32.58;18.48;;;;;;;3.38;97.99;99843.34;5093362;28;20031;-70
2020/12/07 02:08:38;;;;;;;33.70;18.05;;;;;;;3.42;97.97;99846.72;5095784;28;20024;-70
2020/12/07 02:11:04;;;;;;;27.30;16.75;;;;;;;3.40;98.08;99846.75;5100172;28;20036;-70
2020/12/07 02:13:30;;;;;;;31.30;17.90;;;;;;;3.43;98.17;99831.00;5095162;28;20032;-70
2020/12/07 02:15:55;;;;;;;31.25;18.58;;;;;;;3.42;97.91;99836.28;5100970;28;20118;-70
2020/12/07 02:18:21;;;;;;;28.98;17.02;;;;;;;3.43;98.08;99827.53;5095981;28;20044;-70
2020/12/07 02:20:47;;;;;;;29.52;17.33;;;;;;;3.46;97.95;99812.59;5093322;28;20392;-71
2020/12/07 02:23:13;;;;;;;27.27;16.65;;;;;;;3.47;97.69;99813.50;5094922;28;20055;-71
2020/12/07 02:25:38;;;;;;;30.20;17.77;;;;;;;3.41;98.23;99803.22;5125363;27;20055;-71
2020/12/07 02:28:04;;;;;;;28.83;16.90;;;;;;;3.45;98.31;99803.06;5092812;28;20036;-71
2020/12/07 02:30:29;;;;;;;26.63;16.42;;;;;;;3.49;98.27;99798.59;5089888;28;20731;-70
2020/12/07 02:32:55;;;;;;;27.63;17.42;;;;;;;3.51;98.44;99802.84;5093378;28;20028;-71
2020/12/07 02:35:20;;;;;;;33.47;18.38;;;;;;;3.49;98.77;99803.84;5090843;28;20031;-71
2020/12/07 02:37:47;;;;;;;28.75;15.73;;;;;;;3.50;98.38;99790.72;5093589;28;20557;-71
2020/12/07 02:40:13;;;;;;;27.73;17.27;;;;;;;3.46;98.52;99783.88;5090023;28;20031;-71
2020/12/07 02:42:40;;;;;;;27.88;15.80;;;;;;;3.50;98.86;99782.88;5099722;28;20024;-70
2020/12/07 02:45:08;;;;;;;27.45;17.75;;;;;;;3.46;99.06;99777.78;5094133;28;20028;-71
2020/12/07 02:47:34;;;;;;;33.83;17.75;;;;;;;3.47;99.06;99792.59;5101353;28;20027;-70
2020/12/07 02:49:59;;;;;;;26.48;16.45;;;;;;;3.43;99.50;99793.59;5097093;28;20020;-70
2020/12/07 02:52:26;;;;;;;29.35;17.60;;;;;;;3.46;99.30;99789.09;5098132;28;20405;-70
2020/12/07 02:54:54;;;;;;;33.63;17.67;;;;;;;3.48;99.37;99795.13;5095304;28;20020;-70
2020/12/07 02:57:20;;;;;;;29.95;17.45;;;;;;;3.49;99.25;99793.38;5091066;28;20103;-70
2020/12/07 02:59:47;;;;;;;27.20;18.15;;;;;;;3.49;99.45;99778.56;5093204;28;20545;-70
2020/12/07 03:05:35;;;;;;;30.30;18.10;;;;;;;3.50;99.43;99785.47;5092321;28;20121;-70
2020/12/07 03:08:00;;;;;;;31.83;18.27;;;;;;;3.51;99.44;99784.56;5102441;28;20058;-70
2020/12/07 03:10:26;;;;;;;31.35;18.80;;;;;;;3.47;99.63;99779.53;5098619;28;20059;-71
2020/12/07 03:12:51;;;;;;;31.73;18.75;;;;;;;3.52;99.72;99777.63;5093749;28;20043;-71
2020/12/07 03:15:16;;;;;;;28.92;18.13;;;;;;;3.50;99.54;99776.78;5098137;28;20528;-71
2020/12/07 03:17:42;;;;;;;31.48;19.50;;;;;;;3.48;99.76;99770.78;5101184;27;20031;-71
2020/12/07 03:20:07;;;;;;;30.75;19.42;;;;;;;3.48;99.93;99773.38;5092923;28;20516;-71
2020/12/07 03:22:32;;;;;;;30.13;18.50;;;;;;;3.47;100.00;99772.53;5133003;27;20470;-71
2020/12/07 03:24:57;;;;;;;32.80;20.40;;;;;;;3.50;100.00;99777.66;5094668;28;20040;-72
2020/12/07 03:27:23;;;;;;;33.72;20.08;;;;;;;3.49;100.00;99772.47;5097641;28;20020;-72
2020/12/07 03:29:48;;;;;;;32.85;20.02;;;;;;;3.49;100.00;99775.94;5100469;28;20028;-72
2020/12/07 03:32:13;;;;;;;32.92;20.30;;;;;;;3.53;100.00;99774.09;5094472;28;20024;-72
2020/12/07 03:34:39;;;;;;;38.50;21.02;;;;;;;3.53;100.00;99767.09;5099908;28;20421;-72
2020/12/07 03:37:04;;;;;;;33.40;20.15;;;;;;;3.57;100.00;99768.72;5095940;28;20024;-72
2020/12/07 03:39:29;;;;;;;32.70;21.02;;;;;;;3.59;100.00;99766.06;5097927;28;20134;-72
2020/12/07 03:41:55;;;;;;;38.92;21.23;;;;;;;3.57;100.00;99760.88;5099568;28;20088;-72
2020/12/07 03:44:20;;;;;;;40.25;23.42;;;;;;;3.53;100.00;99748.81;5096067;28;20028;-72
2020/12/07 03:46:45;;;;;;;37.75;22.25;;;;;;;3.59;100.00;99746.00;5098319;28;20084;-72
2020/12/07 03:49:11;;;;;;;37.35;22.75;;;;;;;3.63;100.00;99741.53;5098736;28;20563;-72
2020/12/07 03:51:36;;;;;;;39.00;21.90;;;;;;;3.66;100.00;99736.19;5097243;28;20035;-72
2020/12/07 03:54:02;;;;;;;40.33;22.50;;;;;;;3.67;100.00;99742.28;5103315;28;20028;-72
2020/12/07 03:56:27;;;;;;;35.17;20.75;;;;;;;3.67;100.00;99734.47;5101741;28;20052;-70
2020/12/07 03:58:52;;;;;;;36.65;21.70;;;;;;;3.71;100.00;99731.66;5098744;28;20025;-70
2020/12/07 04:01:17;;;;;;;32.47;19.77;;;;;;;3.71;100.00;99733.41;5094956;28;20047;-71
2020/12/07 04:03:48;;;;;;;35.97;20.20;;;;;;;3.70;100.00;99732.56;5091287;28;20031;-70
2020/12/07 04:06:19;;;;;;;37.08;21.13;;;;;;;3.68;100.00;99725.69;5100228;28;20043;-70
2020/12/07 04:08:44;;;;;;;36.38;21.52;;;;;;;3.69;100.00;99720.41;5101836;28;20034;-70
2020/12/07 04:11:09;;;;;;;34.22;19.73;;;;;;;3.63;100.00;99729.31;5098976;28;20118;-70
2020/12/07 04:13:35;;;;;;;31.02;18.00;;;;;;;3.67;99.97;99740.53;5134050;27;20053;-71
2020/12/07 04:16:02;;;;;;;27.63;17.00;;;;;;;3.67;99.51;99744.91;5096654;28;20048;-71
2020/12/07 04:18:27;;;;;;;26.05;15.77;;;;;;;3.67;99.70;99737.91;5096580;28;20111;-71
2020/12/07 04:20:53;;;;;;;27.33;16.65;;;;;;;3.66;99.59;99728.34;5095466;28;20571;-71
2020/12/07 04:23:18;;;;;;;24.48;16.25;;;;;;;3.72;99.62;99730.78;5097919;28;20060;-71
2020/12/07 04:25:43;;;;;;;25.98;15.13;;;;;;;3.71;99.55;99733.41;5097018;28;20123;-71
2020/12/07 04:28:09;;;;;;;24.65;16.02;;;;;;;3.74;99.46;99742.03;5093295;28;20041;-71
2020/12/07 04:30:38;;;;;;;23.50;15.93;;;;;;;3.74;99.50;99741.16;5095240;28;20447;-71
2020/12/07 04:33:04;;;;;;;23.42;15.15;;;;;;;3.74;99.69;99738.56;5097807;28;20100;-71
2020/12/07 04:35:29;;;;;;;25.30;15.73;;;;;;;3.76;99.78;99742.81;5127622;27;20462;-71
2020/12/07 04:37:54;;;;;;;29.92;16.65;;;;;;;3.72;99.75;99729.94;5098291;28;20043;-71
2020/12/07 04:40:20;;;;;;;25.10;16.20;;;;;;;3.77;100.00;99733.22;5079967;28;20575;-71
2020/12/07 04:42:46;;;;;;;26.42;17.13;;;;;;;3.70;100.00;99716.88;5097446;28;20028;-72
2020/12/07 04:45:11;;;;;;;30.75;16.80;;;;;;;3.79;100.00;99726.19;5098501;28;20020;-70
2020/12/07 04:47:38;;;;;;;29.05;18.15;;;;;;;3.79;100.00;99729.66;5098057;27;20024;-71
2020/12/07 04:50:05;;;;;;;26.88;17.45;;;;;;;3.77;100.00;99736.69;5096810;28;20032;-69
2020/12/07 04:52:32;;;;;;;33.20;17.33;;;;;;;3.78;100.00;99732.31;5099476;28;20080;-70
2020/12/07 04:55:01;;;;;;;26.73;18.80;;;;;;;3.76;100.00;99741.97;5096902;28;20027;-70
2020/12/07 04:57:27;;;;;;;29.15;18.52;;;;;;;3.82;100.00;99745.25;5095626;28;20125;-71
2020/12/07 04:59:52;;;;;;;26.05;17.00;;;;;;;3.85;100.00;99741.66;5105141;28;20019;-70
2020/12/07 05:02:17;;;;;;;35.35;18.58;;;;;;;3.86;100.00;99738.97;5079221;22;20061;-81
2020/12/07 05:04:43;;;;;;;28.33;18.65;;;;;;;3.85;100.00;99732.03;5032447;28;20060;-81
2020/12/07 05:07:09;;;;;;;32.97;18.40;;;;;;;3.84;100.00;99732.97;5034146;28;20659;-80
2020/12/07 05:09:36;;;;;;;31.02;19.35;;;;;;;3.86;100.00;99733.75;5013114;28;20024;-81
2020/12/07 05:12:05;;;;;;;34.20;20.65;;;;;;;3.85;100.00;99734.66;5039159;28;20047;-81
2020/12/07 05:14:32;;;;;;;35.20;18.10;;;;;;;3.87;100.00;99734.63;5039081;28;20100;-82
2020/12/07 05:16:58;;;;;;;31.48;19.65;;;;;;;3.87;100.00;99734.63;5008417;28;20029;-82
2020/12/07 05:19:23;;;;;;;35.05;20.00;;;;;;;3.86;100.00;99738.97;5018030;28;20152;-81
2020/12/07 05:21:49;;;;;;;34.70;20.70;;;;;;;3.90;100.00;99747.56;5036555;28;20128;-80
2020/12/07 05:24:16;;;;;;;36.10;19.10;;;;;;;3.85;100.00;99739.88;5037642;28;20606;-81
2020/12/07 05:26:42;;;;;;;30.98;18.88;;;;;;;3.83;100.00;99733.88;5016937;28;20025;-82
2020/12/07 05:29:16;;;;;;;36.92;20.20;;;;;;;3.90;100.00;99731.88;4995793;28;20033;-79
2020/12/07 05:31:42;;;;;;;36.45;19.05;;;;;;;3.86;100.00;99722.44;5017756;28;20031;-78
2020/12/07 05:34:07;;;;;;;40.47;21.33;;;;;;;3.87;100.00;99716.34;5018045;28;20623;-79
2020/12/07 05:36:33;;;;;;;35.60;20.33;;;;;;;3.84;100.00;99719.03;5040122;28;20025;-78
2020/12/07 05:38:59;;;;;;;39.00;21.92;;;;;;;3.86;100.00;99710.22;5038625;28;20029;-78
2020/12/07 05:41:26;;;;;;;38.08;20.27;;;;;;;3.88;100.00;99702.34;5021474;28;20033;-78
2020/12/07 05:43:53;;;;;;;36.05;20.23;;;;;;;3.87;100.00;99698.88;5036507;28;20071;-78
2020/12/07 05:46:24;;;;;;;39.35;21.70;;;;;;;3.88;100.00;99690.13;5004124;28;20120;-79
2020/12/07 05:48:52;;;;;;;44.63;22.65;;;;;;;3.89;100.00;99688.38;5016354;28;20025;-78
2020/12/07 05:51:22;;;;;;;38.25;19.85;;;;;;;3.89;100.00;99680.53;5017703;28;20509;-78
2020/12/07 05:53:47;;;;;;;46.33;23.45;;;;;;;3.89;100.00;99690.97;5024081;28;20033;-78
2020/12/07 05:56:13;;;;;;;45.78;22.15;;;;;;;3.86;100.00;99689.31;5035888;28;20056;-78
2020/12/07 05:58:58;;;;;;;39.00;21.63;;;;;;;3.88;100.00;99691.88;5005854;28;20033;-79
2020/12/07 06:01:25;;;;;;;45.72;21.92;;;;;;;3.89;100.00;99698.81;5022088;28;20112;-78
2020/12/07 06:03:52;;;;;;;40.00;22.85;;;;;;;3.88;100.00;99691.88;5044037;28;20607;-78
2020/12/07 06:06:30;;;;;;;44.45;23.20;;;;;;;3.92;100.00;99687.41;5004273;28;20443;-79
2020/12/07 06:08:58;;;;;;;40.63;21.75;;;;;;;3.90;100.00;99688.31;5028504;28;20096;-78
2020/12/07 06:11:24;;;;;;;42.22;21.95;;;;;;;3.90;100.00;99687.44;5027081;28;20031;-77
2020/12/07 06:13:50;;;;;;;47.50;23.83;;;;;;;3.91;100.00;99683.91;5020775;28;20481;-77
2020/12/07 06:16:15;;;;;;;44.33;24.02;;;;;;;3.94;100.00;99678.59;5041727;28;20128;-79
2020/12/07 06:18:42;;;;;;;44.47;23.38;;;;;;;3.93;100.00;99674.28;5039193;28;20524;-78
2020/12/07 06:21:17;;;;;;;46.72;25.90;;;;;;;3.97;100.00;99675.03;5037817;28;20040;-78
2020/12/07 06:23:44;;;;;;;53.00;25.92;;;;;;;3.95;100.00;99672.44;5034931;28;20078;-78
2020/12/07 06:26:12;;;;;;;45.58;24.30;;;;;;;3.98;100.00;99690.66;5039910;28;20509;-78
2020/12/07 06:28:40;;;;;;;41.05;21.83;;;;;;;4.00;100.00;99687.97;5018734;28;20079;-81
2020/12/07 06:31:11;;;;;;;40.95;24.35;;;;;;;3.95;100.00;99695.97;5019038;28;20112;-82
2020/12/07 06:33:46;;;;;;;42.55;22.60;;;;;;;3.98;100.00;99695.03;5003761;28;20040;-81
2020/12/07 06:36:34;;;;;;;36.83;20.80;;;;;;;4.00;100.00;99698.44;5014221;28;20029;-80
2020/12/07 06:39:05;;;;;;;36.78;20.88;;;;;;;4.00;100.00;99703.66;5035239;28;20036;-81
2020/12/07 06:41:34;;;;;;;38.05;21.42;;;;;;;4.01;100.00;99708.81;5019899;28;20025;-83
2020/12/07 06:44:01;;;;;;;33.95;19.48;;;;;;;3.99;100.00;99708.03;5037083;28;20026;-82
2020/12/07 06:46:58;;;;;;;39.22;20.17;;;;;;;3.98;100.00;99706.34;5038268;28;20025;-81
2020/12/07 06:49:32;;;;;;;33.03;18.25;;;;;;;3.99;100.00;99721.13;5013203;28;20164;-83
2020/12/07 06:52:03;;;;;;;30.42;19.33;;;;;;;3.96;100.00;99712.50;5040897;28;20060;-82
2020/12/07 06:57:19;;;;;;;33.28;19.52;;;;;;;3.92;100.00;99717.03;5032994;28;20037;-79
2020/12/07 07:00:02;;;;;;;31.05;18.95;;;;;;;3.96;100.00;99712.50;5036342;28;20409;-79
2020/12/07 07:02:28;;;;;;;30.10;17.63;;;;;;;3.89;100.00;99714.50;5018680;28;20037;-81
2020/12/07 07:04:55;;;;;;;26.58;18.17;;;;;;;3.93;100.00;99717.88;5002011;28;20196;-84
2020/12/07 07:07:23;;;;;;;26.88;17.92;;;;;;;3.85;100.00;99713.75;5010212;28;20116;-82
2020/12/07 07:09:49;;;;;;;28.83;18.00;;;;;;;3.87;100.00;99719.78;5002170;28;20117;-82
2020/12/07 07:12:15;;;;;;;31.15;19.15;;;;;;;3.83;100.00;99720.81;5041940;28;20488;-82
2020/12/07 07:14:42;;;;;;;29.02;19.83;;;;;;;3.84;100.00;99721.66;5021492;28;20025;-81
2020/12/07 07:17:08;;;;;;;35.35;22.75;;;;;;;3.82;100.00;99732.16;5034295;28;20021;-83
2020/12/07 07:19:34;;;;;;;36.40;23.77;;;;;;;3.76;100.00;99732.34;5018353;28;20064;-85
2020/12/07 07:21:59;;;;;;;40.42;24.25;;;;;;;3.82;100.00;99737.41;5035319;28;20079;-83
2020/12/07 07:24:29;;;;;;;37.75;24.60;;;;;;;3.74;100.00;99733.31;5038251;28;20061;-84
2020/12/07 07:27:04;;;;;;;34.95;24.20;;;;;;;3.77;100.00;99744.53;5020516;28;20040;-84
2020/12/07 07:29:29;;;;;;;39.17;25.42;;;;;;;3.76;100.00;99740.19;5019889;28;20036;-84
2020/12/07 07:31:57;;;;;;;42.60;27.00;;;;;;;3.73;100.00;99734.25;5016488;28;20033;-84
2020/12/07 07:34:22;;;;;;;39.83;25.95;;;;;;;3.72;100.00;99732.53;5035080;28;20033;-83
2020/12/07 07:36:49;;;;;;;42.63;26.23;;;;;;;3.74;100.00;99735.94;5017871;28;20039;-83
2020/12/07 07:39:14;;;;;;;42.58;25.17;;;;;;;3.71;100.00;99736.88;5041019;28;20101;-85
2020/12/07 07:41:41;;;;;;;40.75;26.13;;;;;;;3.69;100.00;99730.88;5034798;28;20112;-83
2020/12/07 07:44:06;;;;;;;37.47;26.15;;;;;;;3.63;100.00;99731.94;5025730;28;20044;-85
2020/12/07 07:46:33;;;;;;;35.58;24.48;;;;;;;3.66;100.00;99722.28;5041251;28;20067;-82
2020/12/07 07:49:29;;;;;;;35.55;24.90;;;;;;;3.66;100.00;99732.72;5040039;28;20026;-85
2020/12/07 07:52:18;;;;;;;34.90;23.67;;;;;;;3.71;100.00;99738.66;5024957;28;20087;-85
2020/12/07 08:00:35;;;;;;;41.97;24.23;;;;;;;3.68;100.00;99744.00;5040667;28;20416;-85
2020/12/07 08:17:17;;;;;;;38.55;23.02;;;;;;;3.63;100.00;99741.53;5022284;28;20022;-85
2020/12/07 08:19:45;;;;;;;40.92;25.30;;;;;;;3.63;100.00;99745.00;5030204;28;20045;-85
2020/12/07 08:22:15;;;;;;;35.60;23.30;;;;;;;3.64;100.00;99746.69;5055710;28;20039;-83
2020/12/07 08:24:54;;;;;;;44.47;24.08;;;;;;;3.67;100.00;99750.97;5058566;28;20034;-85
2020/12/07 08:27:19;;;;;;;41.47;25.25;;;;;;;3.66;100.00;99751.00;5058921;28;20048;-84
2020/12/07 08:29:45;;;;;;;36.78;24.85;;;;;;;3.68;100.00;99746.59;5062093;28;20034;-85
2020/12/07 08:32:24;;;;;;;42.63;25.45;;;;;;;3.66;100.00;99754.47;5057729;28;20067;-84
2020/12/07 08:34:50;;;;;;;45.33;26.73;;;;;;;3.65;100.00;99750.16;5034794;28;20029;-84
2020/12/07 08:37:15;;;;;;;39.97;25.98;;;;;;;3.58;100.00;99741.69;5036079;28;20862;-84
2020/12/07 08:39:40;;;;;;;43.33;29.02;;;;;;;3.55;100.00;99749.63;4984400;28;20029;-85
2020/12/07 08:42:06;;;;;;;43.60;29.13;;;;;;;3.56;100.00;99750.47;4997584;28;20040;-84
2020/12/07 08:44:31;;;;;;;51.72;28.65;;;;;;;3.52;100.00;99754.09;5012968;28;20025;-84
2020/12/07 08:46:56;;;;;;;53.08;30.95;;;;;;;3.48;100.00;99761.19;5018019;28;20048;-83
2020/12/07 08:49:22;;;;;;;45.97;29.33;;;;;;;3.47;100.00;99769.94;5014670;28;20026;-84
2020/12/07 08:51:47;;;;;;;49.92;29.17;;;;;;;3.42;100.00;99773.59;5012084;28;20024;-84
2020/12/07 08:54:14;;;;;;;46.00;27.33;;;;;;;3.45;100.00;99765.63;5016610;28;20135;-84
2020/12/07 08:56:39;;;;;;;51.97;29.90;;;;;;;3.41;100.00;99769.25;5034770;28;20044;-83
2020/12/07 08:59:04;;;;;;;51.17;30.50;;;;;;;3.44;100.00;99777.84;5019150;28;20473;-84
2020/12/07 09:01:31;;;;;;;51.30;29.58;;;;;;;3.45;100.00;99776.09;5000406;28;20045;-83
2020/12/07 09:03:56;;;;;;;51.70;31.00;;;;;;;3.44;100.00;99782.22;5018746;28;20621;-83
2020/12/07 09:06:22;;;;;;;52.25;30.30;;;;;;;3.44;100.00;99780.47;5023041;28;20033;-84
2020/12/07 09:08:47;;;;;;;59.30;32.65;;;;;;;3.41;100.00;99785.78;5037120;28;20050;-84
2020/12/07 09:11:18;;;;;;;53.30;31.38;;;;;;;3.31;100.00;99786.97;5021908;28;20029;-84
2020/12/07 09:13:43;;;;;;;59.55;33.88;;;;;;;3.32;100.00;99784.34;5020769;28;20519;-85
2020/12/07 09:16:09;;;;;;;54.88;33.25;;;;;;;3.33;100.00;99782.56;5038617;28;20024;-85
2020/12/07 09:18:35;;;;;;;63.33;33.65;;;;;;;3.29;100.00;99784.41;5036860;28;20049;-84
2020/12/07 09:21:04;;;;;;;60.97;35.10;;;;;;;3.44;100.00;99792.66;5021136;28;20106;-85
2020/12/07 09:23:29;;;;;;;65.35;35.78;;;;;;;3.44;100.00;99796.13;5037521;28;20072;-84
2020/12/07 09:25:54;;;;;;;65.13;36.05;;;;;;;3.44;100.00;99800.50;5020350;28;20425;-85
2020/12/07 09:28:20;;;;;;;60.70;34.25;;;;;;;3.40;100.00;99802.34;5000978;28;20021;-77
2020/12/07 09:30:45;;;;;;;64.30;33.80;;;;;;;3.38;100.00;99812.00;5035841;28;20436;-77
2020/12/07 09:33:11;;;;;;;64.22;35.33;;;;;;;3.32;100.00;99812.22;5036180;28;20120;-77
2020/12/07 09:35:38;;;;;;;62.97;35.55;;;;;;;3.33;100.00;99808.69;5033757;28;20616;-76
2020/12/07 09:38:03;;;;;;;69.30;36.53;;;;;;;3.30;100.00;99796.56;4994431;28;20046;-76
2020/12/07 09:40:29;;;;;;;75.25;38.72;;;;;;;3.36;100.00;99800.72;4997186;28;20036;-76
2020/12/07 09:42:54;;;;;;;66.10;35.42;;;;;;;3.35;100.00;99802.50;5011970;28;20030;-76
2020/12/07 09:45:19;;;;;;;64.97;35.55;;;;;;;3.34;100.00;99795.56;5031480;28;20052;-76
2020/12/07 09:47:45;;;;;;;68.68;36.40;;;;;;;3.28;100.00;99790.53;5037972;28;20064;-76
2020/12/07 09:50:10;;;;;;;68.65;36.83;;;;;;;3.40;100.00;99799.75;5016082;28;20121;-76
2020/12/07 09:52:36;;;;;;;66.82;35.53;;;;;;;3.32;100.00;99784.34;5017628;28;20051;-75
2020/12/07 09:55:04;;;;;;;64.68;35.35;;;;;;;3.30;100.00;99795.72;5010326;28;20397;-77
2020/12/07 09:57:29;;;;;;;65.00;33.45;;;;;;;3.30;100.00;99788.72;5012224;28;20033;-76
2020/12/07 09:59:55;;;;;;;71.15;38.45;;;;;;;3.33;100.00;99782.56;5032484;28;20513;-76
2020/12/07 10:02:20;;;;;;;67.03;34.20;;;;;;;3.15;100.00;99789.22;5031714;28;20076;-76
2020/12/07 10:04:45;;;;;;;68.00;34.78;;;;;;;3.11;100.00;99796.31;5012972;28;20029;-77
2020/12/07 10:07:11;;;;;;;71.40;37.58;;;;;;;3.08;100.00;99788.53;5010674;28;20021;-76
2020/12/07 10:09:37;;;;;;;73.13;37.72;;;;;;;3.19;100.00;99789.97;5000124;28;20032;-76
2020/12/07 10:12:33;;;;;;;67.10;33.78;;;;;;;3.14;100.00;99795.34;5031111;28;20030;-76
2020/12/07 10:14:59;;;;;;;60.97;32.67;;;;;;;3.07;100.00;99805.13;4991790;28;20035;-76
2020/12/07 10:17:25;;;;;;;66.28;34.88;;;;;;;3.05;99.96;99800.84;5033874;28;20393;-77
2020/12/07 10:19:50;;;;;;;69.70;34.78;;;;;;;3.15;100.00;99797.03;5034049;28;20029;-76
2020/12/07 10:22:15;;;;;;;72.97;36.05;;;;;;;3.13;100.00;99792.78;5035344;28;20037;-76
2020/12/07 10:24:41;;;;;;;65.57;35.40;;;;;;;3.21;100.00;99790.78;5031640;28;20029;-76
2020/12/07 10:27:06;;;;;;;68.40;36.65;;;;;;;3.22;99.75;99789.91;5032626;28;20071;-77
2020/12/07 10:29:43;;;;;;;67.72;35.97;;;;;;;3.25;99.80;99790.63;5031961;28;20045;-78
2020/12/07 10:32:08;;;;;;;65.95;33.35;;;;;;;3.21;99.57;99791.63;5030387;28;20020;-77
2020/12/07 10:34:34;;;;;;;72.78;35.47;;;;;;;3.31;100.00;99776.53;5016663;28;20029;-76
2020/12/07 10:36:59;;;;;;;69.13;35.90;;;;;;;3.40;99.77;99784.06;5020730;28;20090;-76
2020/12/07 10:39:25;;;;;;;64.28;33.90;;;;;;;3.44;100.00;99780.47;5034029;28;20041;-76
2020/12/07 10:41:50;;;;;;;63.78;34.72;;;;;;;3.46;99.86;99796.94;5018187;28;20025;-76
2020/12/07 10:44:15;;;;;;;59.90;35.17;;;;;;;3.45;99.62;99790.00;5018562;28;20041;-76
2020/12/07 10:46:40;;;;;;;64.57;33.33;;;;;;;3.42;99.63;99803.19;5016257;28;20060;-76
2020/12/07 10:49:07;;;;;;;58.45;30.58;;;;;;;3.32;99.27;99793.94;5037704;28;20021;-77
2020/12/07 10:51:33;;;;;;;67.63;34.72;;;;;;;3.38;99.88;99798.94;5017918;28;20029;-76
2020/12/07 10:54:00;;;;;;;58.92;30.77;;;;;;;3.34;99.89;99790.34;5036288;28;20029;-76
2020/12/07 10:56:25;;;;;;;63.05;33.80;;;;;;;3.29;100.00;99789.63;5034018;28;20029;-75
2020/12/07 10:58:50;;;;;;;63.25;33.13;;;;;;;3.28;99.86;99800.13;5000116;28;20550;-77
2020/12/07 11:01:16;;;;;;;60.97;31.88;;;;;;;3.20;99.85;99787.31;5027975;28;20072;-76
2020/12/07 11:03:41;;;;;;;61.53;34.00;;;;;;;3.24;100.00;99801.97;5034432;28;20025;-75
2020/12/07 11:06:18;;;;;;;60.25;32.30;;;;;;;3.18;100.00;99802.19;5033308;28;20029;-76
2020/12/07 11:08:53;;;;;;;66.18;36.92;;;;;;;3.19;100.00;99800.41;5035455;28;20025;-77
2020/12/07 11:11:20;;;;;;;73.15;37.42;;;;;;;3.19;100.00;99800.41;5019683;28;20044;-77
2020/12/07 11:13:46;;;;;;;66.43;35.95;;;;;;;3.17;100.00;99791.78;5021353;28;20064;-77
2020/12/07 11:16:15;;;;;;;74.95;37.47;;;;;;;3.19;100.00;99803.88;5036299;28;20512;-77
2020/12/07 11:18:41;;;;;;;66.57;37.33;;;;;;;3.26;100.00;99801.94;5020352;28;20039;-76
2020/12/07 11:21:12;;;;;;;65.10;36.30;;;;;;;3.23;100.00;99807.25;5002093;28;20436;-73
2020/12/07 11:23:40;;;;;;;66.70;37.03;;;;;;;3.23;100.00;99797.66;5016750;28;20056;-76
2020/12/07 11:26:06;;;;;;;66.97;36.38;;;;;;;3.23;100.00;99797.66;5017658;28;20123;-77
2020/12/07 11:28:31;;;;;;;64.93;35.83;;;;;;;3.25;100.00;99792.38;5031745;28;20112;-76
2020/12/07 11:30:56;;;;;;;65.80;35.67;;;;;;;3.30;100.00;99807.00;5040580;28;20391;-77
2020/12/07 11:33:21;;;;;;;59.72;31.83;;;;;;;3.33;100.00;99799.09;5039472;28;20025;-78
2020/12/07 11:35:46;;;;;;;54.17;30.23;;;;;;;3.30;100.00;99799.19;5038791;28;20111;-77
2020/12/07 11:38:17;;;;;;;54.33;32.05;;;;;;;3.29;100.00;99799.22;5024572;28;20477;-77
2020/12/07 11:40:54;;;;;;;62.97;33.47;;;;;;;3.28;100.00;99801.00;4997654;28;20951;-77
2020/12/07 11:43:43;;;;;;;55.25;29.80;;;;;;;3.21;100.00;99807.28;5027089;28;20034;-77